createdAt,value
2024-03-28T00:01:56.113Z,74.02637
2024-03-28T00:03:55.779Z,74.39648
2024-03-28T00:07:13.904Z,73.05664
2024-03-28T00:09:12.878Z,73.57227
2024-03-28T00:11:12.864Z,74.54492
2024-03-28T00:13:12.975Z,73.55469
2024-03-28T00:15:12.849Z,74.32715
2024-03-28T00:17:12.906Z,73.30371
2024-03-28T00:19:20.955Z,73.23633
2024-03-28T00:22:02.259Z,71.7998
2024-03-28T00:24:02.001Z,70.94629
2024-03-28T00:26:01.977Z,70.87305
2024-03-28T00:28:02.174Z,69.97852
2024-03-28T00:30:01.962Z,69.7373
2024-03-28T00:32:01.954Z,69.5918
2024-03-28T00:34:02.445Z,68.77832
2024-03-28T00:36:01.952Z,68.99414
2024-03-28T00:38:01.338Z,68.16211
2024-03-28T00:40:01.473Z,67.88477
2024-03-28T00:42:01.356Z,68.08789
2024-03-28T00:44:01.356Z,68.44824
2024-03-28T00:46:01.408Z,67.95215
2024-03-28T00:48:01.312Z,67.55859
2024-03-28T00:50:01.437Z,67.89941
2024-03-28T00:52:59.426Z,68.29199
2024-03-28T00:54:59.394Z,67.31348
2024-03-28T00:57:00.081Z,67.53613
2024-03-28T00:58:59.391Z,67.82715
2024-03-28T01:00:59.392Z,67.58691
2024-03-28T01:02:59.847Z,66.99805
2024-03-28T01:04:59.415Z,67.78809
2024-03-28T01:07:51.586Z,66.9668
2024-03-28T01:09:52.068Z,67.42188
2024-03-28T01:11:51.591Z,68.30078
2024-03-28T01:13:51.602Z,68.24512
2024-03-28T01:15:52.650Z,68.78223
2024-03-28T01:17:51.594Z,68.88574
2024-03-28T01:19:51.607Z,69.39941
2024-03-28T01:23:13.308Z,71.3418
2024-03-28T01:25:13.245Z,72.1543
2024-03-28T01:27:13.168Z,73.47754
2024-03-28T01:29:13.296Z,74.91895
2024-03-28T01:31:13.218Z,75.08105
2024-03-28T01:33:13.179Z,74.96777
2024-03-28T01:35:13.269Z,73.89063
2024-03-28T01:37:42.543Z,72.91699
2024-03-28T01:39:42.571Z,71.63184
2024-03-28T01:41:42.645Z,71.53418
2024-03-28T01:43:42.537Z,71.93262
2024-03-28T01:45:42.571Z,71.16504
2024-03-28T01:47:53.945Z,71.94336
2024-03-28T01:49:42.586Z,72.19141
2024-03-28T01:51:42.531Z,71.30664
2024-03-28T01:53:13.044Z,73.44336
2024-03-28T01:55:13.044Z,74.01074
2024-03-28T01:57:15.307Z,73.97754
2024-03-28T01:59:19.743Z,73.08984
2024-03-28T02:01:12.982Z,73.97754
2024-03-28T02:03:12.980Z,72.57324
2024-03-28T02:05:12.989Z,72.4248
2024-03-28T02:08:30.735Z,71.98145
2024-03-28T02:10:30.300Z,71.68164
2024-03-28T02:12:30.293Z,71.25781
2024-03-28T02:14:30.303Z,70.67285
2024-03-28T02:16:30.252Z,70.53223
2024-03-28T02:18:30.350Z,69.88965
2024-03-28T02:20:30.371Z,69.36719
2024-03-28T02:23:09.558Z,69.55859
2024-03-28T02:25:09.525Z,68.97559
2024-03-28T02:27:09.641Z,68.54004
2024-03-28T02:29:09.553Z,68.80273
2024-03-28T02:31:09.543Z,69.12988
2024-03-28T02:33:09.555Z,68.72266
2024-03-28T02:35:09.520Z,68.71387
2024-03-28T02:38:57.076Z,67.94434
2024-03-28T02:40:57.022Z,67.71191
2024-03-28T02:42:56.993Z,67.53711
2024-03-28T02:45:03.914Z,67.69922
2024-03-28T02:46:56.988Z,67.17773
2024-03-28T02:48:57.052Z,67.48438
2024-03-28T02:50:57.084Z,67.28613
2024-03-28T02:53:38.633Z,66.57422
2024-03-28T02:55:38.072Z,66.82715
2024-03-28T02:57:38.131Z,65.74316
2024-03-28T02:59:37.997Z,65.86621
2024-03-28T03:01:38.260Z,65.16895
2024-03-28T03:03:38.190Z,64.83203
2024-03-28T03:05:37.981Z,64.54688
2024-03-28T03:08:28.837Z,64.76367
2024-03-28T03:10:28.897Z,65.04297
2024-03-28T03:12:28.824Z,64.43359
2024-03-28T03:14:28.807Z,64.18848
2024-03-28T03:16:28.889Z,64.00781
2024-03-28T03:18:28.855Z,63.63379
2024-03-28T03:20:28.818Z,62.68066
2024-03-28T03:22:28.889Z,62.78223
2024-03-28T03:23:53.075Z,62.71094
2024-03-28T03:25:53.103Z,63.4375
2024-03-28T03:27:53.220Z,63.66113
2024-03-28T03:29:53.099Z,63.56348
2024-03-28T03:31:53.076Z,62.86328
2024-03-28T03:33:53.228Z,63.71777
2024-03-28T03:35:53.081Z,63.0791
2024-03-28T03:38:47.346Z,62.66504
2024-03-28T03:40:47.301Z,62.36816
2024-03-28T03:42:47.295Z,61.97168
2024-03-28T03:44:50.924Z,62.81152
2024-03-28T03:46:48.745Z,62.04199
2024-03-28T03:48:47.294Z,61.56445
2024-03-28T03:50:47.459Z,61.5293
2024-03-28T03:54:08.523Z,61.55664
2024-03-28T03:56:08.414Z,61.18848
2024-03-28T03:58:08.263Z,60.41309
2024-03-28T04:00:08.284Z,60.68848
2024-03-28T04:02:08.281Z,60.81445
2024-03-28T04:04:08.241Z,60.37891
2024-03-28T04:06:08.407Z,61.42188
2024-03-28T04:09:24.264Z,60.96094
2024-03-28T04:11:24.291Z,60.97559
2024-03-28T04:13:24.220Z,60.79492
2024-03-28T04:15:24.250Z,61.12988
2024-03-28T04:17:24.299Z,60.65723
2024-03-28T04:19:24.267Z,60.38574
2024-03-28T04:21:24.337Z,60.97656
2024-03-28T04:24:52.965Z,60.90625
2024-03-28T04:26:52.576Z,61.33789
2024-03-28T04:28:52.120Z,61.43066
2024-03-28T04:30:52.129Z,61.48242
2024-03-28T04:32:52.123Z,61.51367
2024-03-28T04:34:52.105Z,61.44727
2024-03-28T04:36:52.137Z,61.39551
2024-03-28T04:39:57.500Z,61.02539
2024-03-28T04:41:57.378Z,60.90137
2024-03-28T04:43:57.365Z,61.35742
2024-03-28T04:45:57.821Z,61.8623
2024-03-28T04:47:57.368Z,61.31641
2024-03-28T04:49:57.346Z,61.45898
2024-03-28T04:51:57.807Z,60.50586
2024-03-28T04:55:16.341Z,60.95117
2024-03-28T04:57:22.478Z,60.6377
2024-03-28T04:59:16.290Z,60.6748
2024-03-28T05:01:16.453Z,59.65039
2024-03-28T05:03:16.351Z,59.85742
2024-03-28T05:05:16.343Z,58.65918
2024-03-28T05:07:16.368Z,58.30273
2024-03-28T05:10:19.398Z,57.21289
2024-03-28T05:12:18.841Z,56.0498
2024-03-28T05:14:18.835Z,56.30078
2024-03-28T05:16:19.256Z,54.68359
2024-03-28T05:18:18.846Z,53.41797
2024-03-28T05:20:18.821Z,53.91504
2024-03-28T05:22:19.250Z,52.47266
2024-03-28T05:24:35.303Z,54.38965
2024-03-28T05:26:35.267Z,59.17676
2024-03-28T05:28:36.981Z,62.13574
2024-03-28T05:30:35.268Z,66.40137
2024-03-28T05:32:35.296Z,68.55273
2024-03-28T05:34:35.286Z,69.06738
2024-03-28T05:36:35.273Z,70.82031
2024-03-28T05:38:35.296Z,70.89355
2024-03-28T05:39:42.059Z,71.07422
2024-03-28T05:41:41.979Z,71.65234
2024-03-28T05:43:41.929Z,73.64844
2024-03-28T05:45:42.653Z,73.00977
2024-03-28T05:47:41.952Z,73.26758
2024-03-28T05:49:41.903Z,74.01563
2024-03-28T05:51:42.064Z,73.12402
2024-03-28T05:53:41.910Z,73.03906
2024-03-28T05:54:56.299Z,72.95996
2024-03-28T05:56:56.475Z,72.51563
2024-03-28T05:58:55.631Z,73.6875
2024-03-28T06:00:55.662Z,74.23633
2024-03-28T06:02:55.740Z,74.16602
2024-03-28T06:04:55.605Z,74.32227
2024-03-28T06:06:55.603Z,73.80859
2024-03-28T06:08:56.389Z,73.82422
2024-03-28T06:10:40.293Z,75.08691
2024-03-28T06:12:40.294Z,74.01074
2024-03-28T06:14:40.374Z,74.17188
2024-03-28T06:16:40.245Z,74.10254
2024-03-28T06:18:40.438Z,74.59082
2024-03-28T06:20:40.510Z,74.23926
2024-03-28T06:22:40.324Z,74.11523
2024-03-28T06:25:28.630Z,74.58008
2024-03-28T06:27:26.997Z,74.22852
2024-03-28T06:29:26.862Z,73.55762
2024-03-28T06:31:27.000Z,73.67188
2024-03-28T06:33:27.624Z,74.06348
2024-03-28T06:35:26.884Z,73.96875
2024-03-28T06:37:26.905Z,74.25781
2024-03-28T06:40:33.680Z,73.35352
2024-03-28T06:42:33.618Z,72.67578
2024-03-28T06:44:33.610Z,71.71289
2024-03-28T06:46:33.703Z,72.38184
2024-03-28T06:48:33.641Z,72.65527
2024-03-28T06:50:33.598Z,71.72656
2024-03-28T06:52:34.372Z,71.39844
2024-03-28T06:55:25.615Z,69.87305
2024-03-28T06:57:25.721Z,69.34766
2024-03-28T06:59:25.634Z,68.60254
2024-03-28T07:01:25.699Z,70.39063
2024-03-28T07:03:26.574Z,68.99316
2024-03-28T07:05:25.633Z,67.8125
2024-03-28T07:07:25.689Z,68.97266
2024-03-28T07:10:57.009Z,67.16113
2024-03-28T07:12:31.735Z,69.71777
2024-03-28T07:14:31.705Z,68.41895
2024-03-28T07:16:31.996Z,64.53613
2024-03-28T07:18:31.744Z,66.49707
2024-03-28T07:20:31.735Z,63.33496
2024-03-28T07:22:31.964Z,62.50391
2024-03-28T07:24:31.711Z,62.36914
2024-03-28T07:26:29.043Z,63.15625
2024-03-28T07:28:29.236Z,64.32422
2024-03-28T07:30:29.067Z,57.78711
2024-03-28T07:32:29.159Z,61.82227
2024-03-28T07:34:29.174Z,59.53418
2024-03-28T07:36:29.054Z,59.83008
2024-03-28T07:38:29.088Z,57.72949
2024-03-28T07:42:22.729Z,58.51855
2024-03-28T07:44:18.152Z,58.07813
2024-03-28T07:46:18.199Z,56.45508
2024-03-28T07:48:18.111Z,54.78809
2024-03-28T07:50:18.132Z,58.10352
2024-03-28T07:52:18.112Z,57.4502
2024-03-28T07:54:18.216Z,56.61133
2024-03-28T07:57:21.216Z,53.23145
2024-03-28T07:59:21.354Z,52.16113
2024-03-28T08:01:21.264Z,56.25781
2024-03-28T08:03:21.212Z,53.39551
2024-03-28T08:05:21.278Z,50.62598
2024-03-28T08:07:21.211Z,52.43945
2024-03-28T08:09:21.203Z,53.65137
2024-03-28T08:12:12.126Z,52.18066
2024-03-28T08:14:11.974Z,47.56543
2024-03-28T08:16:12.047Z,53.625
2024-03-28T08:18:12.250Z,52.99512
2024-03-28T08:20:12.010Z,49.2793
2024-03-28T08:22:12.048Z,49.69824
2024-03-28T08:24:12.061Z,45.19629
2024-03-28T08:27:38.142Z,44.98047
2024-03-28T08:29:38.190Z,45.62891
2024-03-28T08:31:38.067Z,45.35059
2024-03-28T08:33:38.281Z,43.5
2024-03-28T08:35:38.068Z,43.55273
2024-03-28T08:37:38.091Z,42.29004
2024-03-28T08:39:38.062Z,43.4248
2024-03-28T08:42:21.797Z,41.27539
2024-03-28T08:44:21.792Z,43.39453
2024-03-28T08:46:21.779Z,40.02539
2024-03-28T08:48:21.741Z,41.99316
2024-03-28T08:50:21.756Z,37.20605
2024-03-28T08:52:21.968Z,39.71582
2024-03-28T08:54:21.725Z,38.29395
2024-03-28T08:57:08.290Z,40.29004
2024-03-28T08:59:08.360Z,38.17969
2024-03-28T09:01:08.358Z,41.07617
2024-03-28T09:03:08.255Z,38.86426
2024-03-28T09:05:08.380Z,39.23438
2024-03-28T09:07:08.426Z,40.24316
2024-03-28T09:09:08.357Z,36.82324
2024-03-28T09:11:08.257Z,35.16895
2024-03-28T09:12:33.639Z,35.03613
2024-03-28T09:14:33.535Z,36.00098
2024-03-28T09:16:33.617Z,33.12305
2024-03-28T09:18:33.800Z,33.94238
2024-03-28T09:20:33.583Z,33.06055
2024-03-28T09:22:33.588Z,35.50293
2024-03-28T09:24:33.535Z,34.67578
2024-03-28T09:27:54.295Z,34.53906
2024-03-28T09:29:54.639Z,31.44824
2024-03-28T09:34:18.196Z,32.6377
2024-03-28T09:36:10.894Z,32.99902
2024-03-28T09:38:10.975Z,33.69434
2024-03-28T09:40:10.924Z,31.97754
2024-03-28T09:42:10.887Z,30.68555
2024-03-28T09:44:11.115Z,32.58496
2024-03-28T09:46:10.878Z,33.46094
2024-03-28T09:48:10.895Z,31.41992
2024-03-28T09:49:49.082Z,29.2793
2024-03-28T09:51:49.058Z,30.15234
2024-03-28T09:53:49.072Z,31.62207
2024-03-28T09:55:49.212Z,31.89453
2024-03-28T09:57:49.048Z,29.95313
2024-03-28T09:59:49.058Z,31.2959
2024-03-28T10:01:49.423Z,29.57422
2024-03-28T10:05:11.790Z,29.42969
2024-03-28T10:07:11.500Z,29.35156
2024-03-28T10:09:11.291Z,28.31934
2024-03-28T10:11:11.288Z,29.16016
2024-03-28T10:13:11.811Z,27.9668
2024-03-28T10:15:11.322Z,30.68457
2024-03-28T10:17:11.297Z,29.60254
2024-03-28T10:20:55.513Z,29.2998
2024-03-28T10:22:54.938Z,29.8623
2024-03-28T10:24:54.833Z,28.40625
2024-03-28T10:26:54.829Z,28.29688
2024-03-28T10:28:54.892Z,31.33398
2024-03-28T10:30:54.894Z,29.32031
2024-03-28T10:32:54.908Z,28.91016
2024-03-28T10:35:57.099Z,28.85645
2024-03-28T10:38:06.088Z,29.12695
2024-03-28T10:39:57.070Z,29.00586
2024-03-28T10:41:57.191Z,29.02148
2024-03-28T10:43:57.080Z,28.34766
2024-03-28T10:45:57.081Z,30.19531
2024-03-28T10:47:57.186Z,28.72949
2024-03-28T10:51:02.931Z,29.19727
2024-03-28T10:53:02.279Z,29.47363
2024-03-28T10:55:02.337Z,28.80566
2024-03-28T10:57:02.219Z,26.24902
2024-03-28T10:59:02.207Z,28.95605
2024-03-28T11:01:11.793Z,27.84668
2024-03-28T11:03:02.217Z,27.89746
2024-03-28T11:05:39.690Z,28.34863
2024-03-28T11:07:33.828Z,27.17578
2024-03-28T11:09:33.201Z,25.3916
2024-03-28T11:11:33.224Z,28.33887
2024-03-28T11:13:33.232Z,28.37207
2024-03-28T11:15:33.203Z,25.92871
2024-03-28T11:17:34.821Z,28.02637
2024-03-28T11:20:36.379Z,27.93164
2024-03-28T11:22:35.801Z,28.18555
2024-03-28T11:24:35.689Z,26.98047
2024-03-28T11:26:35.722Z,26.94727
2024-03-28T11:28:35.917Z,27.89746
2024-03-28T11:30:35.726Z,26.69336
2024-03-28T11:32:35.785Z,26.50293
2024-03-28T11:35:58.085Z,27.30566
2024-03-28T11:37:57.137Z,27.84082
2024-03-28T11:39:54.788Z,26.45508
2024-03-28T11:41:54.938Z,27.39258
2024-03-28T11:43:54.782Z,26.88477
2024-03-28T11:45:54.773Z,28.11523
2024-03-28T11:47:54.888Z,24.63867
2024-03-28T11:51:06.127Z,27.82617
2024-03-28T11:53:06.134Z,26.16016
2024-03-28T11:55:06.190Z,25.16113
2024-03-28T11:57:06.382Z,26.91602
2024-03-28T11:59:06.204Z,26.67383
2024-03-28T12:01:06.223Z,27.91309
2024-03-28T12:03:06.921Z,26.19043
2024-03-28T12:06:40.615Z,27.29297
2024-03-28T12:08:43.157Z,28.33203
2024-03-28T12:10:40.420Z,25.79688
2024-03-28T12:12:40.257Z,25.10059
2024-03-28T12:14:40.351Z,25.70801
2024-03-28T12:16:40.283Z,25.375
2024-03-28T12:18:40.537Z,25.05859
2024-03-28T12:21:53.892Z,25.0498
2024-03-28T12:23:53.979Z,24.65625
2024-03-28T12:25:53.893Z,23.1709
2024-03-28T12:27:53.897Z,24.42578
2024-03-28T12:29:54.395Z,24.22461
2024-03-28T12:31:53.935Z,25.09277
2024-03-28T12:33:53.877Z,26.11328
2024-03-28T12:36:33.544Z,24.08984
2024-03-28T12:38:24.998Z,23.93164
2024-03-28T12:40:25.018Z,24.95898
2024-03-28T12:42:25.101Z,24.76758
2024-03-28T12:44:25.003Z,24.20605
2024-03-28T12:46:25.324Z,24.63281
2024-03-28T12:48:25.002Z,24.02051
2024-03-28T12:52:09.790Z,25.78613
2024-03-28T12:54:02.967Z,24.6748
2024-03-28T12:56:02.878Z,24.46875
2024-03-28T12:58:02.868Z,24.03809
2024-03-28T13:00:03.887Z,24.32324
2024-03-28T13:02:02.872Z,25.68262
2024-03-28T13:04:02.950Z,25.86523
2024-03-28T13:07:21.072Z,24.86133
2024-03-28T13:09:20.988Z,24.07227
2024-03-28T13:11:21.020Z,24.91016
2024-03-28T13:13:21.048Z,25.14453
2024-03-28T13:15:21.010Z,25.0127
2024-03-28T13:17:21.003Z,25.40723
2024-03-28T13:19:21.659Z,24.71777
2024-03-28T13:22:03.211Z,25.16992
2024-03-28T13:24:03.340Z,24.2832
2024-03-28T13:28:02.630Z,25.16406
2024-03-28T13:30:02.700Z,23.81543
2024-03-28T13:32:02.604Z,25.13379
2024-03-28T13:34:02.677Z,24.95703
2024-03-28T13:37:23.937Z,25.06543
2024-03-28T13:39:23.325Z,25.87891
2024-03-28T13:41:24.030Z,24.62207
2024-03-28T13:43:23.370Z,25.50488
2024-03-28T13:45:23.282Z,24.91797
2024-03-28T13:47:23.469Z,25.83691
2024-03-28T13:49:23.322Z,24.6709
2024-03-28T13:52:03.304Z,25.69434
2024-03-28T13:54:03.511Z,26.33301
2024-03-28T13:56:03.276Z,25.66406
2024-03-28T13:58:07.269Z,26.25195
2024-03-28T14:00:06.913Z,25.83594
2024-03-28T14:02:03.220Z,26.41504
2024-03-28T14:04:03.311Z,27.09766
2024-03-28T14:07:38.425Z,25.37695
2024-03-28T14:09:36.895Z,25.60059
2024-03-28T14:11:36.766Z,26.38281
2024-03-28T14:13:36.814Z,25.88184
2024-03-28T14:15:36.894Z,26.06836
2024-03-28T14:17:36.778Z,26.29785
2024-03-28T14:19:36.814Z,26.28027
2024-03-28T14:22:52.452Z,25.71582
2024-03-28T14:24:52.555Z,26.12012
2024-03-28T14:26:52.472Z,25.90918
2024-03-28T14:28:52.431Z,25.09668
2024-03-28T14:30:53.249Z,25.22461
2024-03-28T14:32:52.447Z,25.13281
2024-03-28T14:34:52.449Z,26.19141
2024-03-28T14:38:05.877Z,25.90918
2024-03-28T14:40:05.357Z,26.90234
2024-03-28T14:42:05.349Z,26.5
2024-03-28T14:44:05.360Z,27.53125
2024-03-28T14:46:05.418Z,26.94336
2024-03-28T14:48:05.412Z,27.27441
2024-03-28T14:50:05.380Z,25.58398
2024-03-28T14:52:54.589Z,26.29102
2024-03-28T14:54:53.997Z,26.75293
2024-03-28T14:56:54.118Z,26.64355
2024-03-28T14:58:53.991Z,26.01758
2024-03-28T15:00:54.022Z,26.93555
2024-03-28T15:02:54.091Z,26.80371
2024-03-28T15:04:58.936Z,27.08594
2024-03-28T15:07:51.308Z,26.86621
2024-03-28T15:09:47.889Z,28.00098
2024-03-28T15:11:47.759Z,27.48242
2024-03-28T15:13:47.725Z,28.42676
2024-03-28T15:15:48.329Z,28.12207
2024-03-28T15:17:47.722Z,27.32715
2024-03-28T15:19:47.826Z,27.81934
2024-03-28T15:22:44.373Z,28.16992
2024-03-28T15:24:44.311Z,27.26855
2024-03-28T15:26:44.351Z,28.27637
2024-03-28T15:28:44.712Z,27.99512
2024-03-28T15:30:44.642Z,27.71777
2024-03-28T15:32:46.139Z,27.73438
2024-03-28T15:34:44.369Z,27.58984
2024-03-28T15:38:20.934Z,28.22168
2024-03-28T15:40:20.983Z,26.52637
2024-03-28T15:42:21.230Z,27.92285
2024-03-28T15:44:20.994Z,28.27637
2024-03-28T15:46:20.974Z,28.12891
2024-03-28T15:48:20.902Z,27.11426
2024-03-28T15:50:21.967Z,27.98926
2024-03-28T15:52:55.483Z,29.0166
2024-03-28T15:54:54.983Z,28.17188
2024-03-28T15:56:54.811Z,28.32422
2024-03-28T15:58:54.722Z,27.42578
2024-03-28T16:00:54.765Z,28.32324
2024-03-28T16:02:55.569Z,29.51758
2024-03-28T16:04:54.727Z,28.55176
2024-03-28T16:08:10.300Z,31.04688
2024-03-28T16:10:09.934Z,29.20215
2024-03-28T16:12:09.932Z,30.4502
2024-03-28T16:14:09.922Z,30.54004
2024-03-28T16:16:10.060Z,32.04883
2024-03-28T16:18:09.903Z,30.61328
2024-03-28T16:20:10.015Z,31.2334
2024-03-28T16:23:32.938Z,30.95703
2024-03-28T16:25:33.211Z,31.01465
2024-03-28T16:27:32.822Z,30.46484
2024-03-28T16:29:32.766Z,30.39453
2024-03-28T16:31:32.958Z,30.3623
2024-03-28T16:33:32.782Z,30.94727
2024-03-28T16:35:32.793Z,31.52539
2024-03-28T16:38:51.079Z,31.03223
2024-03-28T16:40:51.198Z,32.80371
2024-03-28T16:42:51.244Z,32.03809
2024-03-28T16:44:51.059Z,32.16211
2024-03-28T16:46:51.042Z,32.95996
2024-03-28T16:48:57.695Z,32.2334
2024-03-28T16:50:51.117Z,32.62598
2024-03-28T16:53:52.079Z,32.85156
2024-03-28T16:55:52.156Z,32.88184
2024-03-28T16:57:52.074Z,34.56152
2024-03-28T16:59:52.077Z,34.04199
2024-03-28T17:01:52.167Z,34.6084
2024-03-28T17:03:52.062Z,34.75293
2024-03-28T17:05:52.062Z,34.76855
2024-03-28T17:08:32.744Z,35.45215
2024-03-28T17:10:32.600Z,35.19141
2024-03-28T17:12:32.569Z,36.21777
2024-03-28T17:14:32.650Z,35.8125
2024-03-28T17:16:32.800Z,35.98535
2024-03-28T17:18:32.557Z,36.13477
2024-03-28T17:20:33.248Z,36.53613
2024-03-28T17:22:33.005Z,36.71387
2024-03-28T17:23:45.324Z,36.30566
2024-03-28T17:25:45.526Z,36.4541
2024-03-28T17:27:45.315Z,37.09668
2024-03-28T17:29:45.330Z,37.6123
2024-03-28T17:31:45.425Z,37.81934
2024-03-28T17:33:45.325Z,38.36035
2024-03-28T17:35:50.715Z,37.87891
2024-03-28T17:39:28.534Z,37.9502
2024-03-28T17:41:28.326Z,37.50781
2024-03-28T17:43:28.452Z,38.48926
2024-03-28T17:45:28.362Z,38.0625
2024-03-28T17:47:28.368Z,38.01953
2024-03-28T17:49:28.398Z,37.6377
2024-03-28T17:51:28.348Z,37.45898
2024-03-28T17:53:51.178Z,37.50684
2024-03-28T17:55:50.638Z,38.00098
2024-03-28T17:57:50.496Z,37.97754
2024-03-28T17:59:50.538Z,38.3584
2024-03-28T18:01:50.696Z,39.00879
2024-03-28T18:03:50.545Z,39.35938
2024-03-28T18:05:50.516Z,39.60645
2024-03-28T18:07:50.876Z,39.41992
2024-03-28T18:09:03.035Z,39.58105
2024-03-28T18:11:02.065Z,39.91504
2024-03-28T18:13:02.269Z,40.53613
2024-03-28T18:15:02.084Z,39.8125
2024-03-28T18:17:02.021Z,39.66113
2024-03-28T18:19:03.130Z,40.51074
2024-03-28T18:21:01.999Z,40.80078
2024-03-28T18:23:02.013Z,41.05859
2024-03-28T18:24:59.278Z,40.30957
2024-03-28T18:26:59.211Z,39.47168
2024-03-28T18:28:59.161Z,39.88184
2024-03-28T18:30:59.292Z,39.79785
2024-03-28T18:32:59.201Z,40.00195
2024-03-28T18:34:59.204Z,39.78613
2024-03-28T18:36:59.712Z,40.48926
2024-03-28T18:40:01.302Z,39.86328
2024-03-28T18:42:01.461Z,40.34863
2024-03-28T18:44:01.317Z,40.6377
2024-03-28T18:46:01.310Z,39.22168
2024-03-28T18:48:01.280Z,40.2041
2024-03-28T18:50:01.394Z,39.55176
2024-03-28T18:52:01.345Z,40.13477
2024-03-28T18:54:49.367Z,41.00391
2024-03-28T18:56:49.343Z,39.92676
2024-03-28T18:58:49.383Z,39.45215
2024-03-28T19:00:49.380Z,40.00879
2024-03-28T19:02:49.445Z,40.47559
2024-03-28T19:04:49.298Z,40.91016
2024-03-28T19:06:51.178Z,42.06836
2024-03-28T19:10:03.863Z,41.98145
2024-03-28T19:12:03.858Z,41.57324
2024-03-28T19:14:04.974Z,41.62402
2024-03-28T19:16:03.916Z,41.67871
2024-03-28T19:18:03.919Z,41.87793
2024-03-28T19:20:04.932Z,40.81738
2024-03-28T19:22:04.016Z,41.93652
2024-03-28T19:25:15.291Z,42.25
2024-03-28T19:27:15.107Z,42.93359
2024-03-28T19:29:15.101Z,42.28711
2024-03-28T19:31:15.215Z,44.24902
2024-03-28T19:33:15.107Z,43.2959
2024-03-28T19:35:15.092Z,43.62305
2024-03-28T19:37:18.640Z,42.39648
2024-03-28T19:39:50.270Z,42.57129
2024-03-28T19:41:49.986Z,43.80078
2024-03-28T19:43:51.427Z,42.11133
2024-03-28T19:45:49.924Z,42.35156
2024-03-28T19:47:50.014Z,42.14746
2024-03-28T19:49:50.737Z,43.19043
2024-03-28T19:51:49.930Z,42.03906
2024-03-28T19:53:49.948Z,42.59766
2024-03-28T19:55:04.822Z,42.17285
2024-03-28T19:57:05.347Z,41.98926
2024-03-28T19:59:04.648Z,42.60547
2024-03-28T20:01:04.649Z,42.27832
2024-03-28T20:03:04.706Z,42.02051
2024-03-28T20:05:04.636Z,42.12305
2024-03-28T20:07:06.470Z,42.28711
2024-03-28T20:10:01.657Z,42.95801
2024-03-28T20:12:01.530Z,43.13086
2024-03-28T20:14:06.497Z,42.69238
2024-03-28T20:16:01.542Z,43.44922
2024-03-28T20:18:01.552Z,43.09082
2024-03-28T20:20:01.744Z,42.94043
2024-03-28T20:22:01.567Z,43.0332
2024-03-28T20:24:01.512Z,42.89355
2024-03-28T20:25:25.546Z,42.72559
2024-03-28T20:27:18.006Z,43.06738
2024-03-28T20:29:18.144Z,43.77637
2024-03-28T20:31:18.012Z,43.53711
2024-03-28T20:33:18.144Z,43.84961
2024-03-28T20:35:19.979Z,43.15039
2024-03-28T20:37:17.970Z,43.08887
2024-03-28T20:40:56.328Z,43.56445
2024-03-28T20:42:54.578Z,43.98633
2024-03-28T20:44:54.614Z,43.71094
2024-03-28T20:46:55.280Z,44.12207
2024-03-28T20:48:54.658Z,43.68652
2024-03-28T20:50:54.618Z,44.1084
2024-03-28T20:52:54.767Z,44.7998
2024-03-28T20:55:37.217Z,43.99805
2024-03-28T20:57:37.218Z,43.23535
2024-03-28T20:59:37.263Z,43.1748
2024-03-28T21:01:37.198Z,43.66016
2024-03-28T21:03:37.438Z,43.65332
2024-03-28T21:05:37.156Z,43.64063
2024-03-28T21:07:37.171Z,43.20801
2024-03-28T21:11:12.917Z,43.63965
2024-03-28T21:13:12.216Z,43.3584
2024-03-28T21:15:12.196Z,43.45117
2024-03-28T21:17:12.296Z,43.37207
2024-03-28T21:19:12.200Z,43.17871
2024-03-28T21:21:12.164Z,43.26953
2024-03-28T21:23:15.714Z,43.49023
2024-03-28T21:25:41.836Z,43.43555
2024-03-28T21:27:42.069Z,43.25195
2024-03-28T21:29:49.409Z,44.05273
2024-03-28T21:31:41.832Z,44.0625
2024-03-28T21:33:41.888Z,44.23242
2024-03-28T21:35:41.996Z,44.61621
2024-03-28T21:37:41.809Z,44.64355
2024-03-28T21:39:41.815Z,44.93652
2024-03-28T21:41:19.279Z,45.89648
2024-03-28T21:43:19.091Z,45.92871
2024-03-28T21:45:19.105Z,46.30664
2024-03-28T21:47:19.206Z,45.71777
2024-03-28T21:49:19.081Z,45.08008
2024-03-28T21:51:19.133Z,45.19922
2024-03-28T21:53:19.428Z,45.24023
2024-03-28T21:56:24.872Z,45.16406
2024-03-28T21:58:24.939Z,45.44824
2024-03-28T22:00:24.897Z,45.06738
2024-03-28T22:02:24.915Z,45.20117
2024-03-28T22:04:24.883Z,45.31641
2024-03-28T22:06:24.873Z,45.50391
2024-03-28T22:08:24.902Z,45.62012
2024-03-28T22:11:46.520Z,45.50098
2024-03-28T22:13:39.812Z,45.18457
2024-03-28T22:15:39.663Z,46.00879
2024-03-28T22:17:39.647Z,45.81641
2024-03-28T22:19:39.766Z,45.60449
2024-03-28T22:21:39.709Z,45.46191
2024-03-28T22:23:39.635Z,45.9502
2024-03-28T22:26:27.750Z,49.68066
2024-03-28T22:28:27.062Z,49.74805
2024-03-28T22:30:27.094Z,49.29199
2024-03-28T22:32:27.374Z,50.62305
2024-03-28T22:34:27.076Z,50.3916
2024-03-28T22:36:27.055Z,50.52832
2024-03-28T22:38:27.116Z,50.51367
2024-03-28T22:42:14.996Z,51.69531
2024-03-28T22:44:15.046Z,51.58203
2024-03-28T22:46:15.051Z,51.44824
2024-03-28T22:48:14.353Z,51.42188
2024-03-28T22:50:14.311Z,51.78027
2024-03-28T22:52:16.102Z,52.17383
2024-03-28T22:54:14.304Z,51.92188
2024-03-28T22:56:37.694Z,51.88281
2024-03-28T22:58:37.763Z,52.08789
2024-03-28T23:00:37.583Z,51.98047
2024-03-28T23:02:37.598Z,52.46387
2024-03-28T23:04:37.669Z,52.83203
2024-03-28T23:06:37.600Z,52.98242
2024-03-28T23:08:37.587Z,53.00195
2024-03-28T23:12:20.520Z,53.72949
2024-03-28T23:14:17.372Z,53.38965
2024-03-28T23:16:17.362Z,53.32129
2024-03-28T23:18:17.462Z,53.68945
2024-03-28T23:20:17.399Z,53.93066
2024-03-28T23:22:17.513Z,54.31836
2024-03-28T23:24:17.443Z,54.37891
2024-03-28T23:27:12.906Z,53.40918
2024-03-28T23:29:12.927Z,54.12891
2024-03-28T23:31:13.057Z,53.66406
2024-03-28T23:33:13.025Z,54.36523
2024-03-28T23:35:12.914Z,55.44727
2024-03-28T23:37:12.978Z,54.76758
2024-03-28T23:39:13.171Z,54.28125
2024-03-28T23:42:16.288Z,53.31152
2024-03-28T23:44:16.319Z,52.77051
2024-03-28T23:46:16.280Z,52.5498
2024-03-28T23:48:16.369Z,51.88965
2024-03-28T23:50:16.419Z,51.63379
2024-03-28T23:52:16.263Z,51.28809
2024-03-28T23:54:16.262Z,50.94629
2024-03-28T23:57:39.499Z,50.63574
2024-03-28T23:59:39.378Z,50.41113
